createdAt,value
2018-10-18T00:01:31.335Z,15.59
2018-10-18T00:04:00.020Z,15.61
2018-10-18T00:06:28.620Z,15.61
2018-10-18T00:08:57.303Z,15.67
2018-10-18T00:11:25.892Z,15.65
2018-10-18T00:13:54.499Z,15.65
2018-10-18T00:16:23.208Z,15.65
2018-10-18T00:18:51.812Z,15.63
2018-10-18T00:21:20.420Z,15.62
2018-10-18T00:23:49.712Z,15.57
2018-10-18T00:26:18.336Z,15.50
2018-10-18T00:28:46.929Z,15.45
2018-10-18T00:31:15.649Z,15.39
2018-10-18T00:33:44.245Z,15.31
2018-10-18T00:36:12.923Z,15.28
2018-10-18T00:38:41.668Z,15.25
2018-10-18T00:41:10.267Z,15.17
2018-10-18T00:43:38.867Z,15.13
2018-10-18T00:46:07.488Z,15.07
2018-10-18T00:48:36.103Z,15.03
2018-10-18T00:51:04.718Z,15.00
2018-10-18T00:53:33.574Z,14.96
2018-10-18T00:56:02.299Z,14.95
2018-10-18T00:58:30.789Z,14.91
2018-10-18T01:00:59.823Z,14.90
2018-10-18T01:03:28.448Z,14.90
2018-10-18T01:05:57.065Z,14.88
2018-10-18T01:08:25.651Z,14.89
2018-10-18T01:10:54.282Z,14.90
2018-10-18T01:13:22.859Z,14.88
2018-10-18T01:15:51.800Z,14.83
2018-10-18T01:18:20.437Z,14.80
2018-10-18T01:20:49.052Z,14.77
2018-10-18T01:23:17.681Z,14.78
2018-10-18T01:25:46.299Z,14.74
2018-10-18T01:28:14.895Z,14.75
2018-10-18T01:30:43.642Z,14.72
2018-10-18T01:33:12.224Z,14.71
2018-10-18T01:35:40.832Z,14.67
2018-10-18T01:38:09.557Z,14.68
2018-10-18T01:40:38.232Z,14.69
2018-10-18T01:43:06.884Z,14.71
2018-10-18T01:45:35.840Z,14.72
2018-10-18T01:48:04.506Z,14.70
2018-10-18T01:50:33.039Z,14.67
2018-10-18T01:53:01.761Z,14.63
2018-10-18T01:55:30.366Z,14.61
2018-10-18T01:57:59.001Z,14.58
2018-10-18T02:00:27.711Z,14.57
2018-10-18T02:02:56.344Z,14.51
2018-10-18T02:05:24.939Z,14.46
2018-10-18T02:07:53.621Z,14.43
2018-10-18T02:10:22.179Z,14.39
2018-10-18T02:12:50.779Z,14.37
2018-10-18T02:15:19.427Z,14.31
2018-10-18T02:17:48.048Z,14.32
2018-10-18T02:20:16.649Z,14.24
2018-10-18T02:22:45.277Z,14.25
2018-10-18T02:25:13.942Z,14.22
2018-10-18T02:27:42.471Z,14.23
2018-10-18T02:30:10.728Z,14.20
2018-10-18T02:32:39.291Z,14.21
2018-10-18T02:35:07.939Z,14.16
2018-10-18T02:37:36.601Z,14.16
2018-10-18T02:40:05.312Z,14.13
2018-10-18T02:42:34.061Z,14.14
2018-10-18T02:45:02.775Z,14.16
2018-10-18T02:47:31.408Z,14.13
2018-10-18T02:50:00.029Z,14.12
2018-10-18T02:52:28.696Z,14.09
2018-10-18T02:54:57.276Z,14.07
2018-10-18T02:57:25.890Z,14.07
2018-10-18T02:59:54.613Z,14.06
2018-10-18T03:02:23.252Z,13.99
2018-10-18T03:04:51.835Z,14.05
2018-10-18T03:07:20.548Z,14.07
2018-10-18T03:09:49.185Z,14.05
2018-10-18T03:12:17.840Z,14.06
2018-10-18T03:14:46.420Z,14.04
2018-10-18T03:17:15.009Z,14.03
2018-10-18T03:19:43.616Z,13.98
2018-10-18T03:22:12.311Z,13.92
2018-10-18T03:24:40.887Z,13.90
2018-10-18T03:27:09.528Z,13.86
2018-10-18T03:29:38.227Z,13.85
2018-10-18T03:32:06.845Z,13.86
2018-10-18T03:34:35.458Z,13.85
2018-10-18T03:37:04.331Z,13.87
2018-10-18T03:39:32.932Z,13.88
2018-10-18T03:42:01.576Z,13.88
2018-10-18T03:44:30.308Z,13.81
2018-10-18T03:46:58.903Z,13.80
2018-10-18T03:49:27.455Z,13.75
2018-10-18T03:51:56.080Z,13.74
2018-10-18T03:54:24.704Z,13.75
2018-10-18T03:56:53.288Z,13.74
2018-10-18T03:59:22.041Z,13.74
2018-10-18T04:01:50.663Z,13.73
2018-10-18T04:04:19.392Z,13.72
2018-10-18T04:06:48.465Z,13.70
2018-10-18T04:09:17.039Z,13.67
2018-10-18T04:11:45.664Z,13.67
2018-10-18T04:14:14.367Z,13.66
2018-10-18T04:16:42.945Z,13.63
2018-10-18T04:19:11.530Z,13.57
2018-10-18T04:21:40.323Z,13.58
2018-10-18T04:24:08.981Z,13.55
2018-10-18T04:26:37.540Z,13.51
2018-10-18T04:29:06.173Z,13.47
2018-10-18T04:31:34.748Z,13.47
2018-10-18T04:34:03.324Z,13.47
2018-10-18T04:36:32.092Z,13.48
2018-10-18T04:39:00.716Z,13.49
2018-10-18T04:41:29.620Z,13.49
2018-10-18T04:43:58.231Z,13.47
2018-10-18T04:46:27.310Z,13.48
2018-10-18T04:48:56.016Z,13.47
2018-10-18T04:51:24.580Z,13.49
2018-10-18T04:53:53.144Z,13.46
2018-10-18T04:56:21.713Z,13.47
2018-10-18T04:58:50.336Z,13.48
2018-10-18T05:01:19.707Z,13.48
2018-10-18T05:03:48.267Z,13.45
2018-10-18T05:06:17.287Z,13.49
2018-10-18T05:08:45.868Z,13.50
2018-10-18T05:11:14.507Z,13.51
2018-10-18T05:13:43.121Z,13.47
2018-10-18T05:16:11.690Z,13.45
2018-10-18T05:18:40.263Z,13.43
2018-10-18T05:21:08.871Z,13.40
2018-10-18T05:23:37.816Z,13.41
2018-10-18T05:26:07.541Z,13.41
2018-10-18T05:28:36.179Z,13.39
2018-10-18T05:31:04.924Z,13.38
2018-10-18T05:33:33.472Z,13.39
2018-10-18T05:36:02.256Z,13.36
2018-10-18T05:38:30.835Z,13.34
2018-10-18T05:40:59.413Z,13.33
2018-10-18T05:43:28.100Z,13.33
2018-10-18T05:45:57.007Z,13.32
2018-10-18T05:48:25.590Z,13.32
2018-10-18T05:50:54.184Z,13.31
2018-10-18T05:53:22.769Z,13.32
2018-10-18T05:55:51.356Z,13.34
2018-10-18T05:58:19.947Z,13.36
2018-10-18T06:00:48.540Z,13.39
2018-10-18T06:03:17.109Z,13.40
2018-10-18T06:05:45.772Z,13.40
2018-10-18T06:08:14.347Z,13.40
2018-10-18T06:10:54.094Z,13.44
2018-10-18T06:13:22.656Z,13.46
2018-10-18T06:15:51.224Z,13.49
2018-10-18T06:18:19.815Z,13.50
2018-10-18T06:20:48.396Z,13.50
2018-10-18T06:23:17.073Z,13.51
2018-10-18T06:25:45.693Z,13.54
2018-10-18T06:28:14.271Z,13.53
2018-10-18T06:30:42.831Z,13.51
2018-10-18T06:33:11.519Z,13.54
2018-10-18T06:35:40.070Z,13.56
2018-10-18T06:38:08.650Z,13.58
2018-10-18T06:40:37.263Z,13.62
2018-10-18T06:43:05.900Z,13.65
2018-10-18T06:45:34.482Z,13.69
2018-10-18T06:48:03.270Z,13.73
2018-10-18T06:50:31.800Z,13.71
2018-10-18T06:53:00.368Z,13.77
2018-10-18T06:55:29.004Z,13.80
2018-10-18T06:57:57.563Z,13.83
2018-10-18T07:00:26.225Z,13.86
2018-10-18T07:02:54.883Z,13.86
2018-10-18T07:05:25.512Z,13.87
2018-10-18T07:07:54.108Z,13.91
2018-10-18T07:10:22.709Z,13.97
2018-10-18T07:12:51.285Z,14.06
2018-10-18T07:15:19.909Z,14.11
2018-10-18T07:17:48.577Z,14.17
2018-10-18T07:20:17.119Z,14.25
2018-10-18T07:22:47.988Z,14.35
2018-10-18T07:25:16.963Z,14.43
2018-10-18T07:27:45.416Z,14.52
2018-10-18T07:30:15.116Z,14.59
2018-10-18T07:32:43.702Z,14.65
2018-10-18T07:35:13.472Z,14.74
2018-10-18T07:37:42.344Z,14.82
2018-10-18T07:40:13.695Z,14.98
2018-10-18T07:42:42.316Z,15.12
2018-10-18T07:45:11.916Z,15.26
2018-10-18T07:47:40.891Z,15.36
2018-10-18T07:50:10.091Z,15.44
2018-10-18T07:52:38.671Z,15.53
2018-10-18T07:55:08.215Z,15.64
2018-10-18T07:57:36.837Z,15.76
2018-10-18T08:00:07.481Z,15.82
2018-10-18T08:02:36.091Z,15.90
2018-10-18T08:05:05.941Z,15.95
2018-10-18T08:07:34.582Z,16.01
2018-10-18T08:10:03.692Z,16.20
2018-10-18T08:12:32.627Z,16.36
2018-10-18T08:15:01.175Z,16.51
2018-10-18T08:17:29.899Z,16.69
2018-10-18T08:19:58.465Z,16.73
2018-10-18T08:22:27.111Z,16.81
2018-10-18T08:24:55.791Z,16.81
2018-10-18T08:27:24.348Z,16.99
2018-10-18T08:29:52.920Z,17.02
2018-10-18T08:32:21.615Z,17.14
2018-10-18T08:34:50.179Z,17.24
2018-10-18T08:37:18.830Z,17.32
2018-10-18T08:39:47.534Z,17.40
2018-10-18T08:42:16.108Z,17.47
2018-10-18T08:44:44.669Z,17.52
2018-10-18T08:47:13.380Z,17.79
2018-10-18T08:49:41.986Z,17.93
2018-10-18T08:52:10.548Z,18.14
2018-10-18T08:54:39.215Z,18.10
2018-10-18T08:57:07.784Z,18.28
2018-10-18T08:59:36.347Z,18.68
2018-10-18T09:02:05.320Z,18.82
2018-10-18T09:04:33.919Z,19.01
2018-10-18T09:07:02.523Z,19.39
2018-10-18T09:09:31.238Z,19.59
2018-10-18T09:11:59.814Z,19.76
2018-10-18T09:14:28.828Z,19.91
2018-10-18T09:16:57.906Z,19.97
2018-10-18T09:19:26.491Z,20.12
2018-10-18T09:21:55.079Z,20.14
2018-10-18T09:24:23.808Z,20.10
2018-10-18T09:26:52.427Z,20.00
2018-10-18T09:29:20.979Z,19.56
2018-10-18T09:31:49.588Z,19.56
2018-10-18T09:34:18.172Z,19.95
2018-10-18T09:36:46.755Z,19.66
2018-10-18T09:39:15.391Z,19.79
2018-10-18T09:41:43.998Z,19.69
2018-10-18T09:44:12.600Z,20.20
2018-10-18T09:46:41.216Z,20.45
2018-10-18T09:49:09.798Z,20.68
2018-10-18T09:51:38.352Z,20.87
2018-10-18T09:54:07.069Z,21.19
2018-10-18T09:56:35.643Z,21.29
2018-10-18T09:59:04.233Z,21.48
2018-10-18T10:01:38.212Z,21.58
2018-10-18T10:04:06.858Z,22.29
2018-10-18T10:06:35.426Z,22.37
2018-10-18T10:09:04.312Z,22.50
2018-10-18T10:11:32.909Z,22.60
2018-10-18T10:14:01.440Z,22.52
2018-10-18T10:16:30.103Z,22.70
2018-10-18T10:18:58.677Z,23.00
2018-10-18T10:21:27.272Z,22.50
2018-10-18T10:23:55.900Z,22.83
2018-10-18T10:26:24.491Z,22.53
2018-10-18T10:28:53.079Z,22.43
2018-10-18T10:31:21.760Z,22.70
2018-10-18T10:33:50.327Z,22.51
2018-10-18T10:36:18.899Z,22.71
2018-10-18T10:38:47.576Z,22.97
2018-10-18T10:41:16.237Z,22.74
2018-10-18T10:43:45.123Z,22.88
2018-10-18T10:46:13.880Z,22.74
2018-10-18T10:48:42.420Z,22.84
2018-10-18T10:51:11.002Z,22.32
2018-10-18T10:53:39.687Z,22.37
2018-10-18T10:56:08.787Z,22.63
2018-10-18T10:58:37.271Z,22.55
2018-10-18T11:01:14.191Z,22.58
2018-10-18T11:03:43.364Z,22.65
2018-10-18T11:06:12.386Z,23.47
2018-10-18T11:08:40.994Z,23.47
2018-10-18T11:11:10.121Z,24.16
2018-10-18T11:13:38.715Z,25.41
2018-10-18T11:16:07.791Z,25.73
2018-10-18T11:18:37.461Z,27.65
2018-10-18T11:21:07.439Z,28.92
2018-10-18T11:23:36.359Z,30.13
2018-10-18T11:26:05.184Z,30.76
2018-10-18T11:28:34.192Z,31.25
2018-10-18T11:31:02.804Z,31.68
2018-10-18T11:33:31.426Z,31.98
2018-10-18T11:36:00.146Z,33.11
2018-10-18T11:38:28.718Z,33.23
2018-10-18T11:40:57.311Z,33.22
2018-10-18T11:43:25.952Z,33.70
2018-10-18T11:45:54.543Z,34.10
2018-10-18T11:48:23.115Z,33.30
2018-10-18T11:50:51.802Z,32.37
2018-10-18T11:53:20.383Z,31.28
2018-10-18T11:55:48.952Z,30.35
2018-10-18T11:58:17.663Z,28.96
2018-10-18T12:00:46.259Z,27.91
2018-10-18T12:03:15.400Z,27.28
2018-10-18T12:05:44.043Z,26.46
2018-10-18T12:08:12.710Z,25.78
2018-10-18T12:10:41.261Z,25.07
2018-10-18T12:13:09.896Z,25.05
2018-10-18T12:15:38.468Z,24.63
2018-10-18T12:18:07.058Z,24.18
2018-10-18T12:20:35.692Z,24.25
2018-10-18T12:23:04.351Z,24.20
2018-10-18T12:25:32.899Z,23.96
2018-10-18T12:28:01.472Z,23.90
2018-10-18T12:30:30.038Z,23.72
2018-10-18T12:32:58.608Z,23.49
2018-10-18T12:35:27.256Z,23.26
2018-10-18T12:37:55.917Z,23.39
2018-10-18T12:40:24.636Z,23.36
2018-10-18T12:42:53.207Z,23.36
2018-10-18T12:45:21.779Z,23.10
2018-10-18T12:47:50.361Z,22.81
2018-10-18T12:50:19.373Z,22.89
2018-10-18T12:52:47.940Z,22.80
2018-10-18T12:55:16.527Z,22.78
2018-10-18T12:57:45.128Z,22.65
2018-10-18T13:00:13.794Z,22.86
2018-10-18T13:02:42.318Z,22.85
2018-10-18T13:05:11.631Z,23.01
2018-10-18T13:07:40.356Z,23.00
2018-10-18T13:10:11.116Z,22.90
2018-10-18T13:12:39.939Z,23.01
2018-10-18T13:15:10.199Z,22.91
2018-10-18T13:17:39.113Z,22.85
2018-10-18T13:20:08.893Z,22.95
2018-10-18T13:22:37.513Z,22.64
2018-10-18T13:25:08.236Z,22.85
2018-10-18T13:27:37.255Z,22.85
2018-10-18T13:30:07.771Z,22.88
2018-10-18T13:32:36.297Z,22.74
2018-10-18T13:35:05.256Z,22.79
2018-10-18T13:37:33.947Z,22.73
2018-10-18T13:40:03.395Z,22.60
2018-10-18T13:42:31.969Z,22.57
2018-10-18T13:45:00.684Z,22.57
2018-10-18T13:47:29.271Z,22.63
2018-10-18T13:49:57.861Z,22.61
2018-10-18T13:52:26.495Z,22.69
2018-10-18T13:54:55.071Z,22.62
2018-10-18T13:57:23.724Z,22.70
2018-10-18T14:00:03.632Z,22.59
2018-10-18T14:02:32.190Z,22.41
2018-10-18T14:05:00.784Z,22.50
2018-10-18T14:07:29.496Z,22.42
2018-10-18T14:09:58.092Z,22.49
2018-10-18T14:12:26.680Z,22.47
2018-10-18T14:14:55.516Z,22.50
2018-10-18T14:17:24.256Z,22.58
2018-10-18T14:19:52.743Z,22.50
2018-10-18T14:22:21.383Z,22.54
2018-10-18T14:24:50.047Z,22.43
2018-10-18T14:27:18.611Z,22.38
2018-10-18T14:29:47.215Z,22.47
2018-10-18T14:32:15.819Z,22.48
2018-10-18T14:34:44.387Z,22.38
2018-10-18T14:37:13.031Z,22.28
2018-10-18T14:39:41.600Z,22.36
2018-10-18T14:42:10.184Z,22.35
2018-10-18T14:44:39.124Z,22.33
2018-10-18T14:47:07.543Z,22.33
2018-10-18T14:49:36.089Z,22.40
2018-10-18T14:52:04.828Z,22.36
2018-10-18T14:54:33.431Z,22.44
2018-10-18T14:57:02.064Z,22.34
2018-10-18T14:59:30.815Z,22.32
2018-10-18T15:01:59.527Z,22.28
2018-10-18T15:04:28.180Z,22.23
2018-10-18T15:06:57.024Z,22.21
2018-10-18T15:09:25.726Z,22.28
2018-10-18T15:11:54.371Z,22.24
2018-10-18T15:14:23.048Z,22.18
2018-10-18T15:16:51.645Z,22.19
2018-10-18T15:19:20.263Z,22.16
2018-10-18T15:21:48.896Z,22.11
2018-10-18T15:24:17.820Z,22.04
2018-10-18T15:26:46.534Z,21.98
2018-10-18T15:29:15.111Z,22.04
2018-10-18T15:31:43.633Z,22.05
2018-10-18T15:34:12.251Z,21.98
2018-10-18T15:36:40.983Z,21.98
2018-10-18T15:39:10.576Z,21.90
2018-10-18T15:41:40.085Z,21.96
2018-10-18T15:44:09.196Z,21.91
2018-10-18T15:46:38.320Z,21.82
2018-10-18T15:49:07.796Z,21.82
2018-10-18T15:51:36.935Z,21.77
2018-10-18T15:54:06.511Z,21.66
2018-10-18T15:56:35.527Z,21.63
2018-10-18T15:59:04.199Z,21.63
2018-10-18T16:01:32.756Z,21.59
2018-10-18T16:04:01.882Z,21.45
2018-10-18T16:06:30.572Z,21.50
2018-10-18T16:08:59.257Z,21.41
2018-10-18T16:11:28.037Z,21.26
2018-10-18T16:13:56.560Z,21.24
2018-10-18T16:16:25.655Z,21.25
2018-10-18T16:18:54.832Z,21.20
2018-10-18T16:21:23.979Z,21.22
2018-10-18T16:23:52.595Z,21.15
2018-10-18T16:26:21.699Z,21.08
2018-10-18T16:28:50.254Z,21.07
2018-10-18T16:31:18.867Z,21.05
2018-10-18T16:33:47.587Z,20.96
2018-10-18T16:36:16.202Z,20.98
2018-10-18T16:38:44.784Z,20.97
2018-10-18T16:41:14.585Z,20.84
2018-10-18T16:43:42.958Z,20.86
2018-10-18T16:46:11.566Z,20.82
2018-10-18T16:48:40.245Z,20.73
2018-10-18T16:51:09.124Z,20.72
2018-10-18T16:53:37.703Z,20.68
2018-10-18T16:56:06.451Z,20.65
2018-10-18T16:58:35.027Z,20.63
2018-10-18T17:01:03.661Z,20.57
2018-10-18T17:03:32.349Z,20.56
2018-10-18T17:06:01.015Z,20.50
2018-10-18T17:08:29.605Z,20.46
2018-10-18T17:10:58.259Z,20.44
2018-10-18T17:13:26.852Z,20.38
2018-10-18T17:15:55.439Z,20.38
2018-10-18T17:18:24.240Z,20.38
2018-10-18T17:20:54.864Z,20.34
2018-10-18T17:23:23.871Z,20.32
2018-10-18T17:25:52.623Z,20.22
2018-10-18T17:28:22.154Z,20.23
2018-10-18T17:30:51.611Z,20.20
2018-10-18T17:33:20.827Z,20.14
2018-10-18T17:35:50.225Z,20.14
2018-10-18T17:38:19.982Z,20.08
2018-10-18T17:40:49.691Z,20.07
2018-10-18T17:43:18.868Z,20.04
2018-10-18T17:45:49.214Z,19.98
2018-10-18T17:48:18.866Z,20.02
2018-10-18T17:50:49.248Z,19.98
2018-10-18T17:53:18.388Z,19.95
2018-10-18T17:55:47.495Z,19.90
2018-10-18T17:58:17.402Z,19.86
2018-10-18T18:00:46.572Z,19.82
2018-10-18T18:03:16.368Z,19.80
2018-10-18T18:05:46.004Z,19.79
2018-10-18T18:08:15.658Z,19.73
2018-10-18T18:10:44.567Z,19.70
2018-10-18T18:13:14.133Z,19.65
2018-10-18T18:15:45.072Z,19.62
2018-10-18T18:18:13.743Z,19.52
2018-10-18T18:20:42.464Z,19.50
2018-10-18T18:23:11.958Z,19.40
2018-10-18T18:25:40.762Z,19.41
2018-10-18T18:28:09.492Z,19.44
2018-10-18T18:30:38.491Z,19.35
2018-10-18T18:33:07.131Z,19.30
2018-10-18T18:35:35.775Z,19.26
2018-10-18T18:38:04.720Z,19.23
2018-10-18T18:40:33.912Z,19.16
2018-10-18T18:43:02.843Z,19.06
2018-10-18T18:45:33.845Z,19.05
2018-10-18T18:48:03.479Z,18.99
2018-10-18T18:50:32.716Z,18.91
2018-10-18T18:53:02.389Z,18.88
2018-10-18T18:55:31.619Z,18.88
2018-10-18T18:58:00.298Z,18.83
2018-10-18T19:00:29.572Z,18.80
2018-10-18T19:02:58.743Z,18.77
2018-10-18T19:05:27.299Z,18.72
2018-10-18T19:07:55.943Z,18.68
2018-10-18T19:10:24.639Z,18.66
2018-10-18T19:12:53.223Z,18.60
2018-10-18T19:15:21.935Z,18.55
2018-10-18T19:17:50.536Z,18.49
2018-10-18T19:20:19.128Z,18.42
2018-10-18T19:22:47.857Z,18.38
2018-10-18T19:25:16.390Z,18.34
2018-10-18T19:27:45.080Z,18.27
2018-10-18T19:30:13.706Z,18.24
2018-10-18T19:32:42.347Z,18.22
2018-10-18T19:35:10.929Z,18.20
2018-10-18T19:37:39.560Z,18.16
2018-10-18T19:40:08.897Z,18.11
2018-10-18T19:42:37.596Z,18.10
2018-10-18T19:45:07.884Z,18.14
2018-10-18T19:47:44.956Z,18.16
2018-10-18T19:50:13.622Z,18.07
2018-10-18T19:52:42.283Z,18.06
2018-10-18T19:55:11.248Z,18.10
2018-10-18T19:57:39.860Z,18.10
2018-10-18T20:00:09.402Z,18.09
2018-10-18T20:02:38.322Z,18.08
2018-10-18T20:05:07.729Z,18.07
2018-10-18T20:07:36.403Z,18.06
2018-10-18T20:10:05.536Z,18.05
2018-10-18T20:12:34.359Z,18.06
2018-10-18T20:15:03.624Z,18.03
2018-10-18T20:17:32.436Z,18.00
2018-10-18T20:20:01.271Z,17.97
2018-10-18T20:22:30.231Z,17.94
2018-10-18T20:24:58.976Z,17.98
2018-10-18T20:27:27.501Z,17.90
2018-10-18T20:29:56.151Z,17.85
2018-10-18T20:32:24.776Z,17.85
2018-10-18T20:34:53.388Z,17.76
2018-10-18T20:37:22.010Z,17.67
2018-10-18T20:39:50.852Z,17.60
2018-10-18T20:42:19.445Z,17.52
2018-10-18T20:44:48.076Z,17.48
2018-10-18T20:47:16.772Z,17.45
2018-10-18T20:49:46.420Z,17.40
2018-10-18T20:52:14.999Z,17.35
2018-10-18T20:54:43.646Z,17.33
2018-10-18T20:57:12.364Z,17.25
2018-10-18T20:59:40.857Z,17.21
2018-10-18T21:02:09.437Z,17.22
2018-10-18T21:04:38.043Z,17.18
2018-10-18T21:07:07.300Z,17.14
2018-10-18T21:09:35.882Z,17.13
2018-10-18T21:12:05.154Z,17.12
2018-10-18T21:14:33.757Z,17.14
2018-10-18T21:17:02.608Z,17.14
2018-10-18T21:19:31.729Z,17.17
2018-10-18T21:22:00.431Z,17.21
2018-10-18T21:24:29.181Z,17.19
2018-10-18T21:26:57.817Z,17.13
2018-10-18T21:29:26.433Z,17.13
2018-10-18T21:31:55.219Z,17.12
2018-10-18T21:34:23.900Z,17.16
2018-10-18T21:36:52.511Z,17.11
2018-10-18T21:39:27.277Z,17.06
2018-10-18T21:41:55.903Z,16.99
2018-10-18T21:44:28.803Z,16.96
2018-10-18T21:46:57.626Z,16.93
2018-10-18T21:49:26.898Z,16.94
2018-10-18T21:51:55.583Z,16.90
2018-10-18T21:54:24.448Z,16.91
2018-10-18T21:56:53.089Z,16.91
2018-10-18T21:59:21.800Z,16.89
2018-10-18T22:01:50.437Z,16.82
2018-10-18T22:04:19.016Z,16.79
2018-10-18T22:06:48.466Z,16.70
2018-10-18T22:09:17.788Z,16.68
2018-10-18T22:11:47.041Z,16.65
2018-10-18T22:14:15.777Z,16.64
2018-10-18T22:16:44.355Z,16.54
2018-10-18T22:19:12.924Z,16.57
2018-10-18T22:21:41.561Z,16.54
2018-10-18T22:24:11.293Z,16.50
2018-10-18T22:26:39.947Z,16.51
2018-10-18T22:29:08.859Z,16.49
2018-10-18T22:31:37.881Z,16.44
2018-10-18T22:34:06.624Z,16.42
2018-10-18T22:36:35.344Z,16.43
2018-10-18T22:39:05.073Z,16.40
2018-10-18T22:41:33.643Z,16.35
2018-10-18T22:44:02.248Z,16.40
2018-10-18T22:46:30.848Z,16.42
2018-10-18T22:48:59.479Z,16.40
2018-10-18T22:51:28.121Z,16.35
2018-10-18T22:53:58.455Z,16.23
2018-10-18T22:56:28.021Z,16.18
2018-10-18T22:58:56.638Z,16.10
2018-10-18T23:01:25.256Z,16.11
2018-10-18T23:03:54.448Z,16.12
2018-10-18T23:06:23.059Z,16.04
2018-10-18T23:08:51.866Z,15.98
2018-10-18T23:11:20.652Z,15.91
2018-10-18T23:13:49.443Z,15.91
2018-10-18T23:16:18.100Z,15.88
2018-10-18T23:18:47.095Z,15.81
2018-10-18T23:21:15.880Z,15.83
2018-10-18T23:23:44.843Z,15.77
2018-10-18T23:26:13.587Z,15.79
2018-10-18T23:28:42.173Z,15.72
2018-10-18T23:31:10.777Z,15.77
2018-10-18T23:33:39.728Z,15.73
2018-10-18T23:36:08.350Z,15.66
2018-10-18T23:38:36.974Z,15.59
2018-10-18T23:41:06.337Z,15.52
2018-10-18T23:43:35.339Z,15.42
2018-10-18T23:46:03.935Z,15.35
2018-10-18T23:48:32.543Z,15.35
2018-10-18T23:51:01.133Z,15.40
2018-10-18T23:53:29.705Z,15.43
2018-10-18T23:55:58.400Z,15.50
2018-10-18T23:58:26.971Z,15.59
